100LL.CA
Aviation Fuel Pricing for Canadians
Please upgrade your browser - Tested with IE9, FireFox, Chrome, Safari

Fuel Prices Airport Info Airport List METAR / TAF Kneeboard RSS

Reference Airport: Langley Regional, BC
N 49 06 03   W 122 37 51

Enter a list of
Airport Idents:
Sort Method: As Entered    By Ident   

CYVR
METAR CYVR 261500Z 13005KT 080V220 15SM FEW005 FEW011 SCT045 BKN091 BKN220 10/07 A2972 RMK CF1SC1SC1AC4CI1 CI TR SLP067
TAF CYVR 261438Z 2615/2718 VRB03KT P6SM FEW012 SCT030 BKN070 BECMG 2616/2618 18006KT FM261800 18006KT P6SM SCT030 BKN080 TEMPO 2618/2703 P6SM -SHRA BKN030 BECMG 2620/2622 25008KT FM270300 28012KT P6SM SCT020 BKN050 TEMPO 2703/2712 P6SM -SHRA BKN020 BKN050 FM271200 28015KT P6SM FEW050 SCT080 RMK NXT FCST BY 261800Z
CYXX
METAR CYXX 261500Z 17010KT 20SM FEW021 FEW030 SCT075 BKN100 11/08 A2973 RMK CU1CU1AC1AC3 SLP071
TAF CYXX 261138Z 2612/2712 19005KT P6SM SCT012 BKN030 TEMPO 2612/2615 4SM -SHRA BR SCT007 BKN012 BECMG 2612/2614 20008KT FM261500 20008KT P6SM OVC050 TEMPO 2615/2618 5SM -SHRA BR BKN020 OVC030 FM261800 21012KT P6SM SCT030 BKN060 TEMPO 2618/2708 P6SM -SHRA BKN030 OVC060 FM270800 18008KT P6SM SCT012 BKN030 OVC050 TEMPO 2708/2712 5SM -SHRA BR BKN012 OVC030 RMK NXT FCST BY 261800Z
KBLI
METAR KBLI 261453Z 18006G15KT 10SM SCT090 11/08 A2974 RMK AO2 RAE09 SLP077 P0000 60000 T01060078 51003
TAF KBLI 261302Z 2613/2712 17012G20KT P6SM VCSH SCT020 BKN045 FM261800 18013G22KT P6SM VCSH SCT025 BKN035 FM270000 18012KT P6SM BKN030 FM270600 18010KT P6SM OVC025